createdAt,value
2023-05-20T00:00:08.283Z,73.03
2023-05-20T00:01:08.297Z,70.53
2023-05-20T00:02:08.295Z,68.84
2023-05-20T00:03:08.370Z,75.92
2023-05-20T00:04:08.476Z,78.44
2023-05-20T00:05:08.306Z,72.52
2023-05-20T00:06:08.276Z,70.35
2023-05-20T00:07:08.324Z,72.15
2023-05-20T00:08:08.280Z,70.30
2023-05-20T00:09:08.250Z,73.32
2023-05-20T00:10:08.308Z,71.55
2023-05-20T00:11:08.254Z,74.93
2023-05-20T00:12:08.269Z,74.17
2023-05-20T00:13:08.251Z,72.68
2023-05-20T00:14:08.245Z,74.01
2023-05-20T00:15:08.245Z,77.85
2023-05-20T00:16:08.368Z,80.20
2023-05-20T00:17:08.234Z,74.68
2023-05-20T00:18:08.312Z,71.76
2023-05-20T00:19:08.289Z,72.07
2023-05-20T00:20:08.226Z,74.75
2023-05-20T00:21:08.256Z,72.93
2023-05-20T00:22:08.219Z,76.46
2023-05-20T00:23:08.235Z,75.12
2023-05-20T00:24:08.221Z,73.67
2023-05-20T00:25:08.206Z,73.47
2023-05-20T00:26:08.221Z,71.34
2023-05-20T00:27:08.204Z,75.79
2023-05-20T00:28:08.209Z,76.16
2023-05-20T00:29:08.201Z,76.07
2023-05-20T00:30:08.217Z,73.57
2023-05-20T00:31:08.181Z,73.77
2023-05-20T00:32:08.244Z,73.88
2023-05-20T00:33:08.249Z,73.72
2023-05-20T00:34:08.187Z,70.51
2023-05-20T00:35:08.204Z,74.83
2023-05-20T00:36:08.187Z,74.62
2023-05-20T00:37:08.185Z,75.12
2023-05-20T00:38:08.192Z,78.76
2023-05-20T00:39:08.205Z,71.39
2023-05-20T00:40:08.188Z,76.79
2023-05-20T00:41:08.205Z,74.46
2023-05-20T00:42:08.203Z,73.27
2023-05-20T00:43:08.195Z,76.72
2023-05-20T00:44:08.200Z,72.79
2023-05-20T00:45:08.211Z,72.12
2023-05-20T00:46:08.231Z,70.16
2023-05-20T00:47:08.207Z,67.82
2023-05-20T00:48:08.306Z,75.53
2023-05-20T00:49:08.217Z,73.42
2023-05-20T00:50:08.217Z,74.64
2023-05-20T00:51:08.220Z,75.12
2023-05-20T00:52:08.230Z,74.12
2023-05-20T00:53:08.240Z,71.93
2023-05-20T00:54:08.232Z,72.75
2023-05-20T00:55:08.230Z,70.86
2023-05-20T00:56:08.254Z,73.46
2023-05-20T00:57:08.259Z,71.41
2023-05-20T00:58:08.261Z,72.04
2023-05-20T00:59:08.228Z,69.43
2023-05-20T01:00:08.271Z,73.45
2023-05-20T01:01:08.245Z,70.69
2023-05-20T01:02:08.241Z,72.69
2023-05-20T01:03:08.302Z,72.45
2023-05-20T01:04:08.262Z,71.56
2023-05-20T01:05:08.267Z,73.43
2023-05-20T01:06:08.268Z,74.30
2023-05-20T01:07:08.266Z,79.17
2023-05-20T01:08:08.279Z,76.13
2023-05-20T01:09:08.275Z,77.58
2023-05-20T01:10:08.286Z,76.54
2023-05-20T01:11:08.296Z,74.64
2023-05-20T01:12:08.276Z,74.34
2023-05-20T01:13:08.279Z,74.46
2023-05-20T01:14:08.280Z,76.34
2023-05-20T01:15:08.276Z,74.51
2023-05-20T01:16:08.328Z,73.04
2023-05-20T01:17:08.311Z,72.29
2023-05-20T01:18:08.312Z,71.59
2023-05-20T01:19:08.329Z,67.75
2023-05-20T01:20:08.283Z,68.44
2023-05-20T01:21:08.289Z,67.17
2023-05-20T01:22:08.285Z,67.85
2023-05-20T01:23:08.319Z,71.10
2023-05-20T01:24:08.289Z,73.48
2023-05-20T01:25:08.283Z,73.53
2023-05-20T01:26:08.300Z,78.35
2023-05-20T01:27:08.294Z,75.75
2023-05-20T01:28:08.314Z,72.21
2023-05-20T01:29:08.308Z,75.01
2023-05-20T01:30:08.313Z,77.17
2023-05-20T01:31:08.357Z,72.89
2023-05-20T01:32:08.310Z,72.37
2023-05-20T01:33:08.384Z,70.46
2023-05-20T01:34:08.310Z,75.54
2023-05-20T01:35:08.348Z,77.28
2023-05-20T01:36:08.308Z,75.71
2023-05-20T01:37:08.311Z,76.87
2023-05-20T01:38:08.387Z,73.83
2023-05-20T01:39:08.316Z,76.46
2023-05-20T01:40:08.354Z,73.58
2023-05-20T01:41:08.332Z,76.16
2023-05-20T01:42:08.336Z,72.14
2023-05-20T01:43:08.353Z,68.22
2023-05-20T01:44:08.355Z,70.97
2023-05-20T01:45:08.358Z,74.74
2023-05-20T01:46:08.380Z,71.89
2023-05-20T01:47:08.408Z,73.48
2023-05-20T01:48:08.459Z,74.20
2023-05-20T01:49:08.368Z,72.16
2023-05-20T01:50:08.371Z,73.06
2023-05-20T01:51:08.368Z,76.05
2023-05-20T01:52:08.373Z,76.44
2023-05-20T01:53:08.370Z,73.61
2023-05-20T01:54:08.370Z,74.45
2023-05-20T01:55:08.377Z,71.19
2023-05-20T01:56:08.381Z,73.73
2023-05-20T01:57:08.385Z,77.83
2023-05-20T01:58:08.437Z,73.55
2023-05-20T01:59:08.397Z,74.63
2023-05-20T02:00:08.421Z,74.27
2023-05-20T02:01:08.454Z,77.44
2023-05-20T02:02:08.449Z,76.81
2023-05-20T02:03:08.538Z,79.70
2023-05-20T02:04:08.413Z,76.25
2023-05-20T02:05:08.454Z,76.40
2023-05-20T02:06:08.473Z,77.89
2023-05-20T02:07:08.427Z,73.64
2023-05-20T02:08:08.439Z,77.34
2023-05-20T02:09:08.436Z,71.80
2023-05-20T02:10:08.442Z,76.92
2023-05-20T02:11:08.441Z,72.52
2023-05-20T02:12:08.435Z,72.85
2023-05-20T02:13:08.483Z,75.68
2023-05-20T02:14:08.460Z,72.00
2023-05-20T02:15:08.467Z,72.28
2023-05-20T02:16:08.488Z,72.87
2023-05-20T02:17:08.454Z,71.56
2023-05-20T02:18:08.583Z,75.16
2023-05-20T02:19:08.619Z,73.40
2023-05-20T02:20:08.489Z,72.36
2023-05-20T02:21:08.491Z,68.82
2023-05-20T02:22:08.498Z,68.41
2023-05-20T02:23:08.520Z,68.28
2023-05-20T02:24:08.527Z,70.08
2023-05-20T02:25:08.523Z,72.93
2023-05-20T02:26:08.536Z,69.47
2023-05-20T02:27:08.548Z,70.74
2023-05-20T02:28:08.543Z,71.46
2023-05-20T02:29:08.549Z,69.22
2023-05-20T02:30:08.555Z,71.30
2023-05-20T02:31:08.587Z,69.92
2023-05-20T02:32:08.573Z,71.60
2023-05-20T02:33:08.662Z,71.31
2023-05-20T02:34:08.622Z,70.33
2023-05-20T02:35:08.588Z,76.16
2023-05-20T02:36:08.591Z,71.66
2023-05-20T02:37:08.590Z,76.64
2023-05-20T02:38:08.612Z,75.10
2023-05-20T02:39:08.611Z,72.72
2023-05-20T02:40:08.631Z,69.62
2023-05-20T02:41:08.644Z,66.35
2023-05-20T02:42:08.640Z,68.83
2023-05-20T02:43:08.633Z,72.35
2023-05-20T02:44:08.638Z,72.78
2023-05-20T02:45:08.659Z,73.75
2023-05-20T02:46:08.708Z,71.13
2023-05-20T02:47:08.669Z,68.72
2023-05-20T02:48:08.735Z,72.54
2023-05-20T02:49:08.694Z,71.88
2023-05-20T02:50:08.677Z,77.31
2023-05-20T02:51:08.701Z,72.26
2023-05-20T02:52:08.700Z,74.61
2023-05-20T02:53:08.684Z,71.13
2023-05-20T02:54:08.686Z,71.24
2023-05-20T02:55:08.711Z,68.92
2023-05-20T02:56:08.682Z,70.27
2023-05-20T02:57:08.715Z,70.30
2023-05-20T02:58:08.723Z,75.34
2023-05-20T02:59:08.721Z,74.10
2023-05-20T03:00:08.729Z,72.20
2023-05-20T03:01:08.730Z,72.95
2023-05-20T03:02:08.719Z,73.40
2023-05-20T03:03:08.780Z,73.39
2023-05-20T03:04:08.800Z,73.92
2023-05-20T03:05:08.799Z,77.08
2023-05-20T03:06:08.784Z,72.88
2023-05-20T03:07:08.763Z,74.14
2023-05-20T03:08:08.791Z,75.84
2023-05-20T03:09:08.799Z,76.03
2023-05-20T03:10:08.803Z,70.28
2023-05-20T03:11:08.808Z,73.65
2023-05-20T03:12:08.805Z,69.77
2023-05-20T03:13:08.842Z,70.43
2023-05-20T03:14:08.815Z,72.61
2023-05-20T03:15:08.829Z,70.56
2023-05-20T03:16:08.928Z,73.40
2023-05-20T03:17:08.809Z,68.91
2023-05-20T03:18:08.812Z,71.37
2023-05-20T03:19:08.882Z,73.35
2023-05-20T03:20:08.877Z,78.74
2023-05-20T03:21:08.883Z,73.54
2023-05-20T03:22:08.857Z,74.00
2023-05-20T03:23:08.851Z,70.04
2023-05-20T03:24:08.851Z,72.11
2023-05-20T03:25:08.853Z,69.30
2023-05-20T03:26:08.868Z,71.28
2023-05-20T03:27:08.889Z,70.07
2023-05-20T03:28:08.858Z,68.83
2023-05-20T03:29:08.861Z,69.76
2023-05-20T03:30:08.849Z,69.74
2023-05-20T03:31:08.879Z,67.70
2023-05-20T03:32:10.853Z,71.06
2023-05-20T03:33:08.852Z,76.73
2023-05-20T03:34:08.870Z,73.25
2023-05-20T03:35:08.873Z,73.10
2023-05-20T03:36:08.872Z,75.89
2023-05-20T03:37:08.879Z,72.71
2023-05-20T03:38:08.918Z,72.99
2023-05-20T03:39:08.910Z,71.99
2023-05-20T03:40:08.890Z,74.56
2023-05-20T03:41:08.894Z,70.88
2023-05-20T03:42:08.886Z,72.33
2023-05-20T03:43:08.883Z,68.07
2023-05-20T03:44:08.912Z,73.69
2023-05-20T03:45:08.897Z,71.73
2023-05-20T03:46:08.969Z,69.80
2023-05-20T03:47:08.954Z,73.56
2023-05-20T03:48:08.984Z,74.04
2023-05-20T03:49:08.948Z,70.71
2023-05-20T03:50:08.964Z,71.77
2023-05-20T03:51:08.965Z,68.85
2023-05-20T03:52:09.001Z,69.85
2023-05-20T03:53:09.002Z,69.91
2023-05-20T03:54:09.028Z,74.15
2023-05-20T03:55:09.000Z,68.58
2023-05-20T03:56:09.002Z,69.29
2023-05-20T03:57:08.995Z,70.02
2023-05-20T03:58:09.006Z,71.57
2023-05-20T03:59:09.024Z,74.52
2023-05-20T04:00:08.992Z,74.81
2023-05-20T04:01:09.011Z,72.46
2023-05-20T04:02:09.061Z,75.80
2023-05-20T04:03:09.160Z,73.84
2023-05-20T04:04:09.149Z,68.59
2023-05-20T04:05:09.046Z,69.50
2023-05-20T04:06:09.062Z,67.14
2023-05-20T04:07:09.064Z,66.50
2023-05-20T04:08:09.045Z,67.91
2023-05-20T04:09:09.087Z,69.92
2023-05-20T04:10:09.068Z,70.28
2023-05-20T04:11:09.086Z,72.56
2023-05-20T04:12:09.065Z,71.13
2023-05-20T04:13:09.063Z,73.15
2023-05-20T04:14:09.073Z,76.40
2023-05-20T04:15:09.063Z,69.91
2023-05-20T04:16:09.093Z,73.17
2023-05-20T04:17:09.156Z,71.81
2023-05-20T04:18:09.186Z,72.93
2023-05-20T04:19:09.177Z,73.55
2023-05-20T04:20:09.109Z,69.91
2023-05-20T04:21:09.110Z,73.15
2023-05-20T04:22:09.103Z,68.58
2023-05-20T04:23:09.126Z,72.40
2023-05-20T04:24:09.146Z,72.59
2023-05-20T04:25:09.132Z,72.76
2023-05-20T04:26:09.137Z,73.45
2023-05-20T04:27:09.145Z,71.88
2023-05-20T04:28:09.148Z,68.51
2023-05-20T04:29:09.165Z,74.93
2023-05-20T04:30:09.189Z,71.82
2023-05-20T04:31:09.156Z,72.38
2023-05-20T04:32:09.207Z,75.27
2023-05-20T04:33:09.264Z,66.22
2023-05-20T04:34:09.227Z,75.43
2023-05-20T04:35:09.177Z,70.71
2023-05-20T04:36:09.193Z,72.84
2023-05-20T04:37:09.217Z,66.30
2023-05-20T04:38:09.220Z,71.32
2023-05-20T04:39:09.211Z,71.25
2023-05-20T04:40:09.246Z,70.22
2023-05-20T04:41:09.212Z,71.09
2023-05-20T04:42:09.252Z,66.89
2023-05-20T04:43:09.220Z,69.21
2023-05-20T04:44:09.257Z,70.79
2023-05-20T04:45:09.278Z,69.09
2023-05-20T04:46:09.311Z,71.72
2023-05-20T04:47:09.260Z,70.86
2023-05-20T04:48:09.300Z,68.68
2023-05-20T04:49:09.268Z,64.80
2023-05-20T04:50:09.304Z,64.06
2023-05-20T04:51:09.271Z,68.65
2023-05-20T04:52:09.313Z,68.60
2023-05-20T04:53:09.330Z,67.60
2023-05-20T04:54:09.305Z,66.40
2023-05-20T04:55:09.321Z,68.70
2023-05-20T04:56:09.310Z,68.56
2023-05-20T04:57:09.314Z,69.26
2023-05-20T04:58:09.338Z,66.59
2023-05-20T04:59:09.350Z,67.39
2023-05-20T05:00:09.345Z,68.71
2023-05-20T05:01:09.374Z,66.85
2023-05-20T05:02:09.348Z,67.47
2023-05-20T05:03:09.460Z,67.08
2023-05-20T05:04:09.518Z,72.13
2023-05-20T05:05:09.426Z,69.26
2023-05-20T05:06:09.397Z,68.03
2023-05-20T05:07:09.422Z,71.01
2023-05-20T05:08:09.400Z,66.77
2023-05-20T05:09:09.400Z,68.47
2023-05-20T05:10:09.412Z,61.14
2023-05-20T05:11:09.435Z,67.30
2023-05-20T05:12:09.443Z,66.36
2023-05-20T05:13:09.442Z,65.58
2023-05-20T05:14:09.477Z,63.03
2023-05-20T05:15:09.445Z,62.76
2023-05-20T05:16:09.526Z,67.59
2023-05-20T05:17:09.449Z,69.65
2023-05-20T05:18:09.562Z,69.31
2023-05-20T05:19:09.512Z,68.28
2023-05-20T05:20:09.516Z,66.75
2023-05-20T05:21:09.481Z,68.31
2023-05-20T05:22:09.484Z,70.81
2023-05-20T05:23:09.505Z,67.36
2023-05-20T05:24:09.494Z,67.82
2023-05-20T05:25:09.505Z,62.71
2023-05-20T05:26:09.495Z,66.96
2023-05-20T05:27:09.539Z,67.57
2023-05-20T05:28:09.500Z,65.66
2023-05-20T05:29:11.600Z,62.92
2023-05-20T05:30:09.564Z,64.48
2023-05-20T05:31:09.543Z,67.14
2023-05-20T05:32:09.599Z,67.28
2023-05-20T05:33:09.569Z,68.97
2023-05-20T05:34:09.538Z,67.00
2023-05-20T05:35:09.535Z,67.11
2023-05-20T05:36:09.550Z,63.95
2023-05-20T05:37:09.542Z,62.79
2023-05-20T05:38:09.549Z,68.83
2023-05-20T05:39:09.552Z,63.04
2023-05-20T05:40:09.550Z,65.86
2023-05-20T05:41:09.542Z,63.05
2023-05-20T05:42:09.524Z,65.96
2023-05-20T05:43:09.527Z,61.79
2023-05-20T05:44:09.545Z,63.83
2023-05-20T05:45:09.538Z,66.65
2023-05-20T05:46:09.521Z,68.42
2023-05-20T05:47:09.631Z,70.14
2023-05-20T05:48:09.567Z,62.38
2023-05-20T05:49:09.502Z,62.24
2023-05-20T05:50:09.520Z,61.81
2023-05-20T05:51:09.506Z,61.47
2023-05-20T05:52:09.520Z,64.05
2023-05-20T05:53:09.505Z,65.88
2023-05-20T05:54:09.509Z,68.06
2023-05-20T05:55:09.538Z,61.76
2023-05-20T05:56:09.518Z,66.93
2023-05-20T05:57:09.510Z,64.05
2023-05-20T05:58:09.517Z,67.20
2023-05-20T05:59:09.531Z,62.95
2023-05-20T06:00:09.531Z,66.87
2023-05-20T06:01:09.619Z,67.25
2023-05-20T06:02:09.564Z,65.98
2023-05-20T06:03:09.622Z,66.37
2023-05-20T06:04:09.647Z,68.42
2023-05-20T06:05:09.540Z,69.82
2023-05-20T06:06:09.546Z,66.74
2023-05-20T06:07:09.536Z,66.20
2023-05-20T06:08:09.546Z,67.00
2023-05-20T06:09:09.537Z,64.91
2023-05-20T06:10:09.522Z,62.85
2023-05-20T06:11:09.522Z,65.65
2023-05-20T06:12:10.553Z,58.13
2023-05-20T06:13:09.520Z,64.19
2023-05-20T06:14:09.565Z,64.06
2023-05-20T06:15:09.518Z,62.23
2023-05-20T06:16:09.548Z,66.14
2023-05-20T06:17:09.552Z,64.02
2023-05-20T06:18:09.543Z,63.82
2023-05-20T06:19:09.754Z,63.52
2023-05-20T06:20:09.503Z,64.32
2023-05-20T06:21:09.536Z,62.06
2023-05-20T06:22:09.512Z,64.66
2023-05-20T06:23:09.522Z,62.30
2023-05-20T06:24:09.611Z,62.43
2023-05-20T06:25:09.492Z,64.94
2023-05-20T06:26:09.503Z,63.14
2023-05-20T06:27:09.501Z,65.61
2023-05-20T06:28:09.522Z,63.48
2023-05-20T06:29:09.525Z,63.67
2023-05-20T06:30:09.486Z,61.56
2023-05-20T06:31:09.578Z,62.27
2023-05-20T06:32:09.488Z,60.10
2023-05-20T06:33:09.527Z,64.01
2023-05-20T06:34:09.518Z,63.20
2023-05-20T06:35:09.497Z,65.55
2023-05-20T06:36:09.499Z,63.45
2023-05-20T06:37:09.466Z,64.93
2023-05-20T06:38:09.529Z,67.18
2023-05-20T06:39:09.462Z,65.57
2023-05-20T06:40:09.473Z,66.57
2023-05-20T06:41:09.467Z,65.70
2023-05-20T06:42:09.478Z,63.08
2023-05-20T06:43:09.489Z,65.29
2023-05-20T06:44:09.473Z,67.34
2023-05-20T06:45:09.478Z,66.04
2023-05-20T06:46:09.530Z,68.34
2023-05-20T06:47:09.479Z,67.75
2023-05-20T06:48:09.531Z,63.25
2023-05-20T06:49:09.477Z,61.99
2023-05-20T06:50:09.464Z,64.85
2023-05-20T06:51:09.524Z,67.12
2023-05-20T06:52:09.460Z,64.18
2023-05-20T06:53:09.485Z,65.71
2023-05-20T06:54:09.501Z,61.48
2023-05-20T06:55:09.472Z,61.35
2023-05-20T06:56:09.456Z,65.25
2023-05-20T06:57:09.459Z,64.79
2023-05-20T06:58:09.456Z,66.31
2023-05-20T06:59:09.464Z,66.70
2023-05-20T07:00:09.459Z,64.45
2023-05-20T07:01:09.526Z,66.94
2023-05-20T07:02:09.502Z,65.34
2023-05-20T07:03:09.483Z,62.80
2023-05-20T07:04:09.497Z,64.36
2023-05-20T07:05:09.462Z,61.73
2023-05-20T07:06:09.448Z,61.60
2023-05-20T07:07:09.471Z,63.73
2023-05-20T07:08:09.527Z,59.80
2023-05-20T07:09:09.444Z,60.37
2023-05-20T07:10:09.449Z,63.52
2023-05-20T07:11:09.436Z,63.16
2023-05-20T07:12:09.443Z,62.88
2023-05-20T07:13:09.442Z,60.18
2023-05-20T07:14:09.444Z,60.91
2023-05-20T07:15:09.457Z,60.33
2023-05-20T07:16:09.540Z,61.42
2023-05-20T07:17:09.449Z,59.51
2023-05-20T07:18:09.473Z,63.93
2023-05-20T07:19:09.515Z,65.03
2023-05-20T07:20:09.446Z,61.82
2023-05-20T07:21:09.474Z,63.76
2023-05-20T07:22:09.445Z,60.51
2023-05-20T07:23:09.448Z,63.97
2023-05-20T07:24:09.454Z,60.00
2023-05-20T07:25:09.426Z,53.58
2023-05-20T07:26:09.443Z,57.96
2023-05-20T07:27:09.429Z,64.10
2023-05-20T07:28:09.428Z,65.87
2023-05-20T07:29:09.435Z,62.23
2023-05-20T07:30:09.444Z,64.57
2023-05-20T07:31:09.451Z,66.76
2023-05-20T07:32:09.474Z,64.54
2023-05-20T07:33:09.453Z,63.05
2023-05-20T07:34:09.472Z,62.64
2023-05-20T07:35:09.445Z,66.53
2023-05-20T07:36:11.244Z,62.98
2023-05-20T07:37:09.443Z,65.44
2023-05-20T07:38:09.447Z,63.84
2023-05-20T07:39:12.554Z,60.68
2023-05-20T07:40:10.439Z,60.86
2023-05-20T07:41:09.439Z,61.30
2023-05-20T07:42:09.426Z,61.86
2023-05-20T07:43:09.430Z,62.30
2023-05-20T07:44:09.423Z,57.98
2023-05-20T07:45:09.407Z,60.21
2023-05-20T07:46:09.442Z,65.86
2023-05-20T07:47:09.389Z,63.18
2023-05-20T07:48:09.414Z,62.49
2023-05-20T07:49:09.378Z,60.19
2023-05-20T07:50:09.392Z,55.20
2023-05-20T07:51:09.428Z,55.14
2023-05-20T07:52:09.365Z,59.30
2023-05-20T07:53:09.341Z,61.67
2023-05-20T07:54:09.356Z,58.75
2023-05-20T07:55:09.336Z,63.04
2023-05-20T07:56:09.341Z,62.30
2023-05-20T07:57:09.342Z,58.32
2023-05-20T07:58:09.326Z,53.50
2023-05-20T07:59:09.308Z,57.52
2023-05-20T08:00:09.301Z,52.92
2023-05-20T08:01:09.324Z,51.81
2023-05-20T08:02:09.342Z,57.41
2023-05-20T08:03:09.496Z,60.50
2023-05-20T08:04:09.359Z,59.75
2023-05-20T08:05:09.291Z,62.54
2023-05-20T08:06:09.308Z,61.31
2023-05-20T08:07:09.308Z,63.21
2023-05-20T08:08:09.301Z,66.50
2023-05-20T08:09:09.320Z,63.66
2023-05-20T08:10:09.321Z,64.52
2023-05-20T08:11:09.338Z,60.63
2023-05-20T08:12:09.392Z,63.04
2023-05-20T08:13:09.361Z,61.01
2023-05-20T08:14:09.379Z,61.20
2023-05-20T08:15:09.395Z,51.91
2023-05-20T08:16:09.428Z,58.55
2023-05-20T08:17:09.552Z,57.88
2023-05-20T08:18:09.515Z,53.21
2023-05-20T08:19:09.546Z,58.42
2023-05-20T08:20:09.494Z,56.15
2023-05-20T08:21:09.517Z,61.57
2023-05-20T08:22:09.542Z,59.92
2023-05-20T08:23:09.606Z,58.05
2023-05-20T08:24:09.621Z,60.14
2023-05-20T08:25:09.660Z,59.71
2023-05-20T08:26:09.699Z,59.43
2023-05-20T08:27:09.707Z,55.55
2023-05-20T08:28:09.734Z,53.54
2023-05-20T08:29:09.784Z,47.60
2023-05-20T08:30:09.857Z,52.02
2023-05-20T08:31:09.885Z,49.73
2023-05-20T08:32:09.848Z,51.76
2023-05-20T08:33:09.910Z,51.19
2023-05-20T08:34:09.944Z,54.63
2023-05-20T08:35:10.056Z,50.37
2023-05-20T08:36:10.047Z,59.81
2023-05-20T08:37:10.111Z,57.81
2023-05-20T08:38:10.167Z,61.70
2023-05-20T08:39:10.228Z,55.97
2023-05-20T08:40:10.308Z,56.65
2023-05-20T08:41:10.458Z,59.33
2023-05-20T08:42:10.402Z,59.20
2023-05-20T08:43:10.449Z,55.74
2023-05-20T08:44:10.519Z,59.78
2023-05-20T08:45:10.570Z,61.44
2023-05-20T08:46:10.641Z,61.06
2023-05-20T08:47:10.674Z,54.32
2023-05-20T08:48:10.792Z,55.38
2023-05-20T08:49:10.798Z,61.89
2023-05-20T08:50:10.825Z,64.73
2023-05-20T08:51:10.878Z,64.31
2023-05-20T08:52:10.928Z,69.05
2023-05-20T08:53:10.990Z,64.34
2023-05-20T08:54:11.040Z,58.09
2023-05-20T08:55:11.098Z,59.32
2023-05-20T08:56:11.145Z,60.63
2023-05-20T08:57:11.208Z,65.68
2023-05-20T08:58:11.259Z,68.60
2023-05-20T08:59:11.280Z,64.58
2023-05-20T09:00:11.334Z,61.56
2023-05-20T09:01:11.387Z,61.88
2023-05-20T09:02:11.501Z,57.82
2023-05-20T09:03:11.522Z,52.61
2023-05-20T09:04:11.542Z,57.17
2023-05-20T09:05:11.659Z,55.41
2023-05-20T09:06:11.630Z,63.80
2023-05-20T09:07:11.701Z,63.49
2023-05-20T09:08:11.812Z,59.47
2023-05-20T09:09:11.814Z,59.35
2023-05-20T09:10:11.873Z,54.18
2023-05-20T09:11:11.935Z,58.45
2023-05-20T09:12:11.993Z,64.38
2023-05-20T09:13:12.104Z,64.31
2023-05-20T09:14:12.152Z,61.63
2023-05-20T09:15:12.215Z,58.39
2023-05-20T09:16:12.288Z,62.13
2023-05-20T09:17:12.317Z,60.19
2023-05-20T09:18:12.486Z,64.30
2023-05-20T09:19:12.548Z,61.68
2023-05-20T09:20:12.508Z,59.11
2023-05-20T09:21:12.568Z,57.86
2023-05-20T09:22:12.630Z,59.07
2023-05-20T09:23:12.687Z,56.93
2023-05-20T09:24:12.759Z,57.88
2023-05-20T09:25:12.821Z,56.65
2023-05-20T09:26:12.900Z,57.15
2023-05-20T09:27:12.947Z,58.20
2023-05-20T09:28:13.001Z,56.77
2023-05-20T09:29:13.066Z,57.32
2023-05-20T09:30:13.120Z,58.83
2023-05-20T09:31:13.192Z,64.05
2023-05-20T09:32:13.329Z,65.65
2023-05-20T09:33:13.317Z,67.20
2023-05-20T09:34:13.360Z,67.70
2023-05-20T09:35:13.464Z,69.38
2023-05-20T09:36:14.629Z,63.28
2023-05-20T09:37:13.473Z,75.38
2023-05-20T09:38:13.470Z,69.75
2023-05-20T09:39:13.457Z,70.75
2023-05-20T09:40:13.472Z,68.76
2023-05-20T09:41:13.459Z,70.12
2023-05-20T09:42:13.438Z,69.01
2023-05-20T09:43:13.442Z,68.40
2023-05-20T09:44:13.436Z,61.92
2023-05-20T09:45:13.434Z,68.86
2023-05-20T09:46:13.443Z,65.51
2023-05-20T09:47:13.433Z,66.87
2023-05-20T09:48:13.468Z,66.87
2023-05-20T09:49:13.432Z,65.42
2023-05-20T09:50:13.404Z,66.44
2023-05-20T09:51:13.394Z,63.25
2023-05-20T09:52:13.383Z,66.64
2023-05-20T09:53:13.380Z,63.07
2023-05-20T09:54:13.408Z,64.17
2023-05-20T09:55:13.373Z,67.73
2023-05-20T09:56:13.373Z,62.37
2023-05-20T09:57:13.358Z,63.63
2023-05-20T09:58:15.537Z,64.05
2023-05-20T09:59:13.340Z,64.16
2023-05-20T10:00:13.324Z,63.57
2023-05-20T10:01:13.463Z,62.00
2023-05-20T10:02:13.461Z,62.56
2023-05-20T10:03:13.393Z,65.66
2023-05-20T10:04:13.325Z,61.83
2023-05-20T10:05:13.321Z,60.78
2023-05-20T10:06:13.287Z,60.75
2023-05-20T10:07:13.284Z,60.48
2023-05-20T10:08:13.291Z,58.03
2023-05-20T10:09:13.327Z,59.12
2023-05-20T10:10:13.271Z,59.68
2023-05-20T10:11:13.256Z,58.27
2023-05-20T10:12:13.245Z,60.06
2023-05-20T10:13:13.265Z,56.16
2023-05-20T10:14:13.275Z,57.02
2023-05-20T10:15:13.247Z,56.83
2023-05-20T10:16:13.264Z,57.90
2023-05-20T10:17:13.219Z,57.64
2023-05-20T10:18:13.230Z,59.02
2023-05-20T10:19:13.272Z,56.26
2023-05-20T10:20:13.216Z,60.70
2023-05-20T10:21:13.192Z,55.04
2023-05-20T10:22:13.198Z,57.27
2023-05-20T10:23:13.199Z,57.43
2023-05-20T10:24:13.184Z,54.82
2023-05-20T10:25:13.164Z,53.26
2023-05-20T10:26:13.189Z,46.15
2023-05-20T10:27:13.176Z,49.11
2023-05-20T10:28:13.158Z,48.92
2023-05-20T10:29:13.143Z,45.00
2023-05-20T10:30:13.156Z,49.22
2023-05-20T10:31:13.147Z,48.92
2023-05-20T10:32:13.178Z,51.47
2023-05-20T10:33:13.281Z,48.59
2023-05-20T10:34:13.126Z,47.01
2023-05-20T10:35:13.113Z,41.75
2023-05-20T10:36:13.122Z,41.50
2023-05-20T10:37:13.118Z,46.05
2023-05-20T10:38:13.100Z,44.14
2023-05-20T10:39:13.152Z,43.27
2023-05-20T10:40:13.176Z,42.59
2023-05-20T10:41:13.258Z,41.88
2023-05-20T10:42:13.259Z,43.20
2023-05-20T10:43:13.325Z,39.65
2023-05-20T10:44:13.366Z,44.92
2023-05-20T10:45:13.424Z,46.53
2023-05-20T10:46:21.818Z,44.95
2023-05-20T10:47:24.786Z,45.24
2023-05-20T10:48:14.515Z,45.33
2023-05-20T10:49:13.544Z,46.82
2023-05-20T10:50:13.418Z,46.20
2023-05-20T10:51:13.419Z,48.51
2023-05-20T10:52:13.401Z,52.88
2023-05-20T10:53:21.964Z,49.99
2023-05-20T10:54:14.408Z,50.31
2023-05-20T10:55:13.394Z,50.43
2023-05-20T10:56:13.376Z,51.16
2023-05-20T10:57:13.379Z,48.72
2023-05-20T10:58:13.360Z,49.55
2023-05-20T10:59:13.381Z,49.95
2023-05-20T11:00:13.345Z,48.91
2023-05-20T11:01:13.373Z,50.20
2023-05-20T11:02:13.345Z,50.85
2023-05-20T11:03:13.393Z,50.76
2023-05-20T11:04:13.440Z,47.82
2023-05-20T11:05:13.334Z,52.64
2023-05-20T11:06:14.389Z,54.66
2023-05-20T11:07:13.431Z,52.42
2023-05-20T11:08:24.637Z,56.48
2023-05-20T11:09:14.499Z,56.65
2023-05-20T11:10:13.468Z,54.78
2023-05-20T11:11:13.480Z,56.65
2023-05-20T11:12:14.658Z,56.73
2023-05-20T11:13:13.488Z,57.47
2023-05-20T11:14:13.446Z,55.63
2023-05-20T11:15:13.464Z,57.15
2023-05-20T11:16:13.468Z,53.50
2023-05-20T11:17:13.449Z,54.13
2023-05-20T11:18:13.505Z,56.22
2023-05-20T11:19:13.543Z,58.92
2023-05-20T11:20:13.514Z,55.18
2023-05-20T11:21:13.559Z,56.34
2023-05-20T11:22:13.614Z,58.00
2023-05-20T11:23:13.655Z,54.22
2023-05-20T11:24:13.700Z,55.16
2023-05-20T11:25:13.753Z,54.32
2023-05-20T11:26:13.787Z,53.47
2023-05-20T11:27:13.833Z,57.28
2023-05-20T11:28:13.880Z,53.95
2023-05-20T11:29:13.912Z,59.25
2023-05-20T11:30:13.966Z,57.20
2023-05-20T11:31:14.019Z,56.41
2023-05-20T11:32:14.144Z,57.71
2023-05-20T11:33:14.177Z,59.23
2023-05-20T11:34:14.135Z,60.94
2023-05-20T11:35:14.192Z,59.97
2023-05-20T11:36:27.039Z,61.27
2023-05-20T11:37:15.234Z,61.38
2023-05-20T11:38:14.214Z,59.60
2023-05-20T11:39:14.226Z,61.36
2023-05-20T11:40:14.314Z,62.00
2023-05-20T11:41:14.192Z,55.29
2023-05-20T11:42:14.188Z,60.07
2023-05-20T11:43:14.194Z,64.45
2023-05-20T11:44:14.180Z,60.60
2023-05-20T11:45:14.174Z,59.47
2023-05-20T11:46:14.232Z,61.81
2023-05-20T11:47:14.167Z,59.24
2023-05-20T11:48:14.194Z,65.93
2023-05-20T11:49:14.204Z,57.83
2023-05-20T11:50:14.222Z,61.21
2023-05-20T11:51:14.277Z,57.05
2023-05-20T11:52:14.308Z,55.74
2023-05-20T11:53:14.389Z,57.78
2023-05-20T11:54:14.388Z,57.35
2023-05-20T11:55:14.430Z,59.43
2023-05-20T11:56:14.501Z,58.34
2023-05-20T11:57:14.524Z,61.31
2023-05-20T11:58:14.584Z,62.58
2023-05-20T11:59:14.625Z,60.92
2023-05-20T12:00:14.652Z,61.59
2023-05-20T12:02:16.173Z,63.40
2023-05-20T12:03:14.785Z,63.26
2023-05-20T12:04:14.872Z,61.29
2023-05-20T12:05:14.659Z,64.11
2023-05-20T12:06:14.683Z,66.21
2023-05-20T12:07:14.643Z,61.33
2023-05-20T12:08:14.653Z,60.27
2023-05-20T12:09:14.652Z,61.46
2023-05-20T12:10:14.635Z,59.73
2023-05-20T12:11:14.615Z,60.13
2023-05-20T12:12:14.624Z,61.49
2023-05-20T12:13:14.635Z,59.35
2023-05-20T12:14:14.633Z,57.36
2023-05-20T12:15:14.664Z,60.85
2023-05-20T12:16:14.816Z,64.39
2023-05-20T12:17:14.762Z,59.71
2023-05-20T12:18:14.780Z,63.31
2023-05-20T12:19:14.885Z,62.94
2023-05-20T12:20:14.870Z,61.56
2023-05-20T12:21:14.915Z,58.27
2023-05-20T12:22:14.959Z,59.45
2023-05-20T12:23:14.992Z,61.26
2023-05-20T12:24:15.050Z,62.08
2023-05-20T12:25:15.062Z,62.55
2023-05-20T12:26:15.108Z,61.89
2023-05-20T12:27:15.167Z,58.70
2023-05-20T12:28:15.173Z,62.21
2023-05-20T12:29:15.229Z,59.12
2023-05-20T12:30:15.258Z,61.26
2023-05-20T12:31:15.329Z,63.06
2023-05-20T12:32:15.396Z,64.40
2023-05-20T12:33:15.373Z,63.14
2023-05-20T12:34:15.407Z,66.14
2023-05-20T12:35:15.451Z,67.81
2023-05-20T12:36:15.511Z,63.65
2023-05-20T12:37:15.504Z,64.66
2023-05-20T12:38:15.546Z,63.65
2023-05-20T12:39:15.592Z,62.41
2023-05-20T12:40:15.632Z,59.90
2023-05-20T12:41:15.666Z,60.65
2023-05-20T12:42:15.700Z,63.36
2023-05-20T12:43:15.729Z,61.54
2023-05-20T12:44:15.777Z,59.74
2023-05-20T12:45:15.834Z,59.90
2023-05-20T12:46:15.837Z,57.47
2023-05-20T12:47:15.940Z,61.59
2023-05-20T12:48:15.888Z,57.43
2023-05-20T12:49:15.905Z,58.89
2023-05-20T12:50:15.948Z,58.09
2023-05-20T12:51:15.974Z,61.97
2023-05-20T12:52:22.399Z,59.07
2023-05-20T12:53:17.018Z,59.40